Home   Weather   France   Évreux   Past weeks
Flag for France

Past Weather in Évreux, Eure, France — Yesterday and Last 2 Weeks

Currently: 34 °F. Clear. (Weather station: Evreux Airport, France). See more current weather

Past Weather in Évreux — Graph

°F

Évreux Temperature Yesterday

Maximum temperature yesterday: 46 °F (at 4:00 pm)
Minimum temperature yesterday: 34 °F (at 12:30 am)
Average temperature yesterday: 37 °F

High & Low Weather Summary for the Past Weeks

 TemperatureHumidityPressure
High50 °F (Jan 30, 4:00 pm)100% (Jan 25, 3:30 am)30.80 "Hg (Jan 25, 3:30 am)
Low27 °F (Jan 29, 2:00 am)53% (Feb 6, 4:30 pm)30.21 "Hg (Jan 26, 4:30 am)
Average40 °F86%30.48 "Hg
* Reported Jan 23 2:00 am — Feb 7 2:30 am, Évreux. Weather by CustomWeather, © 2023

Note: Actual official high and low records may vary slightly from our data, if they occured in-between our weather recording intervals... More about our weather records

Évreux Weather History for the Previous 24 Hours

Scroll right to see more
 ConditionsComfort  
Time TempWeatherWind HumidityBarometerVisibility
2:30 am
Tue, Feb 7
34 °FClear.10 mph93%30.57 "Hg10 mi
2:00 am32 °FClear.8 mph93%30.57 "Hg10 mi
12:30 am32 °FPassing clouds.6 mph93%30.60 "HgN/A
12:00 am32 °FClear.5 mph93%30.60 "Hg10 mi
11:00 pm
Mon, Feb 6
36 °FClear.2 mph87%30.60 "Hg10 mi
10:30 pm36 °FClear.2 mph81%30.63 "Hg10 mi
10:00 pm36 °FClear.No wind87%30.63 "Hg10 mi
9:30 pm34 °FClear.1 mph87%30.63 "Hg10 mi
9:00 pm36 °FPassing clouds.5 mph81%30.63 "HgN/A
8:30 pm34 °FClear.6 mph81%30.63 "Hg10 mi
8:00 pm36 °FClear.3 mph75%30.63 "Hg10 mi
7:30 pm37 °FClear.5 mph70%30.63 "Hg10 mi
7:00 pm39 °FClear.6 mph70%30.66 "Hg10 mi
6:30 pm37 °FClear.7 mph70%30.66 "Hg10 mi
6:00 pm41 °FClear.6 mph66%30.63 "Hg10 mi
5:00 pm46 °FSunny.7 mph57%30.63 "Hg10 mi
4:30 pm46 °FSunny.10 mph53%30.66 "Hg10 mi
4:00 pm46 °FSunny.12 mph57%30.66 "Hg10 mi
3:00 pm45 °FPassing clouds.12 mph61%30.66 "HgN/A
2:30 pm45 °FSunny.12 mph61%30.69 "Hg10 mi
2:00 pm45 °FPassing clouds.9 mph66%30.69 "HgN/A
1:00 pm43 °FScattered clouds.9 mph76%30.72 "HgN/A
12:30 pm41 °FPartly sunny.8 mph81%30.72 "HgN/A
12:00 pm39 °FOvercast.10 mph87%30.72 "HgN/A
11:30 am39 °FOvercast.7 mph87%30.72 "HgN/A
11:00 am37 °FLow clouds.7 mph93%30.72 "HgN/A
10:30 am36 °FLow clouds.6 mph93%30.74 "HgN/A
10:00 am36 °FLow clouds.No wind93%30.74 "HgN/A
9:30 am36 °FOvercast.1 mph93%30.74 "HgN/A
9:00 am34 °FPartly sunny.1 mph100%30.74 "Hg6 mi
8:00 am34 °FPassing clouds.9 mph93%30.74 "Hg6 mi
7:00 am34 °FClear.8 mph93%30.74 "Hg5 mi
6:30 am34 °FPassing clouds.8 mph93%30.74 "Hg5 mi
6:00 am36 °FPassing clouds.8 mph93%30.74 "Hg6 mi
5:30 am34 °FOvercast.6 mph100%30.74 "Hg6 mi
5:00 am34 °FOvercast.3 mph100%30.74 "Hg6 mi
4:00 am36 °FPassing clouds.5 mph93%30.74 "Hg6 mi
3:30 am34 °FMostly cloudy.5 mph100%30.77 "Hg6 mi
3:00 am34 °FPassing clouds.6 mph93%30.77 "HgN/A
Weather by CustomWeather, © 2023

See weather overview